PASY METAR and TAF weather

Enter ICAO airport designator
Station Type Date Time Source
PASY METAR 2020/04/06 16:55 UTC NOAA

PASY 061655Z 00000KT 7SM FEW030 M04/M07 A3040 RMK AO2A SLP297 T10461075 RVRNO FZRANO PNO $


Station Type Date Time Source
PASY Decoded METAR 2020/04/06 16:55 UTC NOAA

SHEMYA EARECKSON AS, AK, United States (PASY) 52-43N 174-07E
Apr 06, 2020 - 12:55 PM EDT / 2020.04.06 1655 UTC
Wind: Calm:0
Visibility: 7 mile(s):0
Sky conditions: mostly clear
Temperature: 23.7 F (-4.6 C)
Dew Point: 18.5 F (-7.5 C)
Relative Humidity: 80%
Pressure (altimeter): 30.4 in. Hg (1029 hPa)
ob: PASY 061655Z 00000KT 7SM FEW030 M04/M07 A3040 RMK AO2A SLP297 T10461075 RVRNO FZRANO PNO
cycle: 17

Station Type Date Time Source
PASY TAF 2020/04/06 14:06 UTC NOAA

TAF TAF PASY 061400Z 0614/0720 VRB06KT 9999 SKC QNH3032INS
BECMG 0705/0706 17015KT 9999 SCT030 QNH3022INS
BECMG 0712/0713 17020KT 9999 BKN025 QNH3008INS TX02/0714Z TNM06/0618Z

Example: see airport list